Time;durP1;ratioP1;P1;durP2;ratioP2;P2;SDS_P1;SDS_P2;PMS_P1;PMS_P2;Temp;Humidity;BMP_temperature;BMP_pressure;BME280_temperature;BME280_humidity;BME280_pressure;Samples;Min_cycle;Max_cycle;Signal;HPM_P1;HPM_P2
2023/09/11 00:00:23;;;;;;;7.45;6.10;;;18.00;99.90;;;;;;5054943;28;20036;-36
2023/09/11 00:02:48;;;;;;;7.00;6.18;;;18.00;99.90;;;;;;5039591;28;20128;-34
2023/09/11 00:05:14;;;;;;;7.50;6.80;;;18.10;99.90;;;;;;5041149;28;21211;-40
2023/09/11 00:07:40;;;;;;;8.40;6.70;;;18.10;99.90;;;;;;5040870;28;20033;-41
2023/09/11 00:10:06;;;;;;;9.85;7.30;;;18.10;99.90;;;;;;5041092;28;20474;-39
2023/09/11 00:12:31;;;;;;;10.25;6.97;;;18.10;99.90;;;;;;5044641;28;20025;-41
2023/09/11 00:14:57;;;;;;;9.77;7.40;;;18.00;99.90;;;;;;5037209;28;20033;-34
2023/09/11 00:17:23;;;;;;;8.18;7.28;;;18.00;99.90;;;;;;5041049;28;20490;-41
2023/09/11 00:19:49;;;;;;;11.18;8.23;;;17.90;99.90;;;;;;5024259;28;20067;-38
2023/09/11 00:22:14;;;;;;;9.27;6.90;;;18.00;99.90;;;;;;5021939;28;20037;-36
2023/09/11 00:24:40;;;;;;;7.88;7.05;;;17.90;99.90;;;;;;5023640;28;20043;-41
2023/09/11 00:27:05;;;;;;;7.30;6.25;;;17.70;99.90;;;;;;5026106;28;20032;-39
2023/09/11 00:29:31;;;;;;;9.93;7.40;;;17.60;99.90;;;;;;5034129;28;20029;-42
2023/09/11 00:31:56;;;;;;;8.38;6.50;;;17.60;99.90;;;;;;5039456;28;20604;-38
2023/09/11 00:34:22;;;;;;;10.70;7.00;;;17.50;99.90;;;;;;5046440;28;20577;-38
2023/09/11 00:36:48;;;;;;;8.00;6.78;;;17.30;99.90;;;;;;5026311;28;20040;-37
2023/09/11 00:39:13;;;;;;;7.50;6.63;;;17.30;99.90;;;;;;5044012;28;20161;-39
2023/09/11 00:41:40;;;;;;;8.60;6.95;;;17.20;99.90;;;;;;5048409;28;20025;-40
2023/09/11 00:44:06;;;;;;;8.95;7.05;;;17.30;99.90;;;;;;5048918;28;20473;-38
2023/09/11 00:46:33;;;;;;;8.05;7.22;;;17.30;99.90;;;;;;5046462;28;20139;-36
2023/09/11 00:49:00;;;;;;;8.50;7.13;;;17.40;99.90;;;;;;5043794;28;20766;-36
2023/09/11 00:51:26;;;;;;;8.10;6.85;;;17.40;99.90;;;;;;5049970;28;20016;-38
2023/09/11 00:53:52;;;;;;;9.93;7.00;;;17.30;99.90;;;;;;5030323;28;20036;-38
2023/09/11 00:56:18;;;;;;;9.15;6.93;;;17.20;99.90;;;;;;5026427;28;20724;-36
2023/09/11 00:58:44;;;;;;;8.88;6.80;;;17.00;99.90;;;;;;5024849;28;20067;-39
2023/09/11 01:01:11;;;;;;;8.57;5.95;;;16.90;99.90;;;;;;5026430;28;20041;-41
2023/09/11 01:03:37;;;;;;;7.20;6.50;;;16.80;99.90;;;;;;5024998;28;20092;-34
2023/09/11 01:06:03;;;;;;;7.88;6.93;;;16.90;99.90;;;;;;5027167;28;20033;-37
2023/09/11 01:08:28;;;;;;;6.72;5.97;;;17.00;99.90;;;;;;5031213;28;20039;-34
2023/09/11 01:10:56;;;;;;;11.80;6.93;;;17.00;99.90;;;;;;5025631;28;20040;-35
2023/09/11 01:13:23;;;;;;;8.68;6.63;;;17.00;99.90;;;;;;5025522;28;20036;-36
2023/09/11 01:16:00;;;;;;;7.53;6.45;;;17.10;99.90;;;;;;5028620;28;20086;-37
2023/09/11 01:18:45;;;;;;;7.72;6.30;;;17.10;99.90;;;;;;5048094;28;20077;-36
2023/09/11 01:21:14;;;;;;;7.82;6.63;;;17.10;99.90;;;;;;5045723;28;20139;-39
2023/09/11 01:24:06;;;;;;;7.80;7.00;;;17.20;99.90;;;;;;5062122;28;20021;-39
2023/09/11 01:26:56;;;;;;;8.05;6.25;;;17.10;99.90;;;;;;5019350;28;20053;-39
2023/09/11 01:29:25;;;;;;;7.50;6.18;;;17.10;99.90;;;;;;5033588;28;20147;-40
2023/09/11 01:31:53;;;;;;;6.53;5.85;;;17.10;99.90;;;;;;5038044;28;20032;-40
2023/09/11 01:34:18;;;;;;;7.38;6.68;;;17.10;99.90;;;;;;5039041;28;20044;-41
2023/09/11 01:36:44;;;;;;;7.10;6.20;;;17.10;99.90;;;;;;5039830;28;20029;-38
2023/09/11 01:39:10;;;;;;;7.18;5.95;;;17.00;99.90;;;;;;5036278;28;20060;-40
2023/09/11 01:41:39;;;;;;;8.02;7.10;;;16.90;99.90;;;;;;5042480;28;20068;-40
2023/09/11 01:44:21;;;;;;;9.25;7.03;;;16.80;99.90;;;;;;5039161;28;20084;-39
2023/09/11 01:46:49;;;;;;;7.93;7.07;;;16.90;99.90;;;;;;5046458;28;20025;-38
2023/09/11 01:49:16;;;;;;;8.10;7.25;;;16.90;99.90;;;;;;5039976;28;20051;-35
2023/09/11 01:51:42;;;;;;;7.95;6.97;;;16.80;99.90;;;;;;5046050;28;20039;-38
2023/09/11 01:54:09;;;;;;;7.10;6.40;;;16.80;99.90;;;;;;5041315;28;20065;-40
2023/09/11 01:56:35;;;;;;;5.43;4.88;;;16.80;99.90;;;;;;5036470;28;20029;-41
2023/09/11 01:59:02;;;;;;;5.60;5.00;;;16.80;99.90;;;;;;5043301;28;20388;-34
2023/09/11 02:01:27;;;;;;;7.25;5.80;;;16.80;99.90;;;;;;5037606;28;20033;-39
2023/09/11 02:03:53;;;;;;;5.75;5.18;;;16.80;99.90;;;;;;5044548;28;20033;-41
2023/09/11 02:06:19;;;;;;;8.70;6.68;;;16.70;99.90;;;;;;5043510;28;20037;-41
2023/09/11 02:08:44;;;;;;;10.07;7.25;;;16.70;99.90;;;;;;5041431;28;20036;-40
2023/09/11 02:11:10;;;;;;;7.03;6.32;;;16.50;99.90;;;;;;5045007;28;20429;-41
2023/09/11 02:13:36;;;;;;;8.82;6.90;;;16.30;99.90;;;;;;5048376;28;20600;-41
2023/09/11 02:16:02;;;;;;;6.90;6.20;;;16.10;99.90;;;;;;5047182;28;20040;-35
2023/09/11 02:18:28;;;;;;;6.00;5.40;;;16.10;99.90;;;;;;5047873;28;20948;-42
2023/09/11 02:20:53;;;;;;;7.30;5.90;;;16.30;99.90;;;;;;5042709;28;20148;-40
2023/09/11 02:23:20;;;;;;;8.43;7.22;;;16.30;99.90;;;;;;5049068;28;20389;-36
2023/09/11 02:25:47;;;;;;;8.43;7.28;;;16.40;99.90;;;;;;5043741;28;20413;-34
2023/09/11 02:28:16;;;;;;;7.97;6.55;;;16.30;99.90;;;;;;5044772;28;20075;-33
2023/09/11 02:30:42;;;;;;;5.38;4.85;;;16.10;99.90;;;;;;5040751;28;20474;-33
2023/09/11 02:33:07;;;;;;;4.65;4.25;;;16.00;99.90;;;;;;5043928;28;20040;-34
2023/09/11 02:35:33;;;;;;;4.10;3.70;;;16.00;99.90;;;;;;5042036;28;20037;-33
2023/09/11 02:37:59;;;;;;;4.20;3.80;;;15.90;99.90;;;;;;5044547;28;20028;-37
2023/09/11 02:40:25;;;;;;;4.65;4.25;;;16.00;99.90;;;;;;5044758;28;20498;-37
2023/09/11 02:42:50;;;;;;;5.03;4.63;;;16.00;99.90;;;;;;5048956;28;20053;-33
2023/09/11 02:45:16;;;;;;;5.57;5.10;;;16.00;99.90;;;;;;5050600;28;20386;-31
2023/09/11 02:47:41;;;;;;;5.00;4.50;;;16.00;99.90;;;;;;5062359;28;20549;-32
2023/09/11 02:50:07;;;;;;;5.60;5.10;;;16.10;99.90;;;;;;5050953;28;20443;-33
2023/09/11 02:52:33;;;;;;;6.20;5.60;;;16.10;99.90;;;;;;5048107;28;20052;-32
2023/09/11 02:54:59;;;;;;;6.65;5.95;;;16.10;99.90;;;;;;5032909;28;20383;-38
2023/09/11 02:57:24;;;;;;;7.47;6.60;;;16.10;99.90;;;;;;5045114;28;20478;-31
2023/09/11 02:59:54;;;;;;;8.18;6.65;;;16.10;99.90;;;;;;5041956;28;20029;-32
2023/09/11 03:02:23;;;;;;;7.93;7.00;;;16.10;99.90;;;;;;5041793;28;20037;-32
2023/09/11 03:04:52;;;;;;;8.25;7.45;;;16.10;99.90;;;;;;5040325;28;20449;-33
2023/09/11 03:07:18;;;;;;;9.05;6.95;;;16.10;99.90;;;;;;5035941;28;20036;-32
2023/09/11 03:09:44;;;;;;;6.80;6.10;;;16.10;99.90;;;;;;5043725;28;20037;-32
2023/09/11 03:12:10;;;;;;;6.65;6.05;;;16.00;99.90;;;;;;5050217;28;20510;-32
2023/09/11 03:14:36;;;;;;;7.18;5.75;;;15.90;99.90;;;;;;5046823;28;20033;-34
2023/09/11 03:17:01;;;;;;;6.60;5.97;;;15.70;99.90;;;;;;5051645;28;20028;-35
2023/09/11 03:19:27;;;;;;;6.88;6.05;;;15.60;99.90;;;;;;5050292;28;20086;-33
2023/09/11 03:21:54;;;;;;;6.70;6.05;;;15.60;99.90;;;;;;5050917;28;20053;-33
2023/09/11 03:24:20;;;;;;;7.13;6.45;;;15.60;99.90;;;;;;5044250;28;20059;-35
2023/09/11 03:26:46;;;;;;;6.95;6.25;;;15.60;99.90;;;;;;5043538;28;20467;-33
2023/09/11 03:29:12;;;;;;;7.93;6.90;;;15.60;99.90;;;;;;5044506;28;20029;-32
2023/09/11 03:31:37;;;;;;;9.43;7.75;;;15.60;99.90;;;;;;5041391;28;20033;-34
2023/09/11 03:34:03;;;;;;;12.38;8.13;;;15.60;99.90;;;;;;5041479;28;20151;-35
2023/09/11 03:36:29;;;;;;;9.73;8.07;;;15.70;99.90;;;;;;5047337;28;20024;-35
2023/09/11 03:38:54;;;;;;;10.13;7.88;;;15.50;99.90;;;;;;5042992;28;20033;-34
2023/09/11 03:41:21;;;;;;;8.40;7.50;;;15.50;99.90;;;;;;5047550;28;20037;-33
2023/09/11 03:43:46;;;;;;;8.07;7.20;;;15.50;99.90;;;;;;5047078;28;20049;-33
2023/09/11 03:46:12;;;;;;;8.25;7.30;;;15.40;99.90;;;;;;5048813;28;20082;-32
2023/09/11 03:48:38;;;;;;;9.70;6.95;;;15.40;99.90;;;;;;5047524;28;20033;-32
2023/09/11 03:51:12;;;;;;;8.05;7.25;;;15.40;99.90;;;;;;5048791;28;20455;-34
2023/09/11 03:53:42;;;;;;;7.80;7.00;;;15.40;99.90;;;;;;5049067;28;20029;-31
2023/09/11 03:56:12;;;;;;;7.88;7.07;;;15.50;99.90;;;;;;5038708;28;20131;-31
2023/09/11 03:58:38;;;;;;;9.93;6.88;;;15.50;99.90;;;;;;5044911;28;20036;-29
2023/09/11 04:01:04;;;;;;;8.00;6.55;;;15.50;99.90;;;;;;5043163;28;20082;-30
2023/09/11 04:03:30;;;;;;;8.02;6.93;;;15.50;99.90;;;;;;5041809;28;20422;-29
2023/09/11 04:05:55;;;;;;;8.25;7.20;;;15.50;99.90;;;;;;5046783;28;20379;-31
2023/09/11 04:08:21;;;;;;;8.48;7.05;;;15.40;99.90;;;;;;5059542;28;20032;-30
2023/09/11 04:10:47;;;;;;;7.97;6.93;;;15.40;99.90;;;;;;5048716;28;20474;-29
2023/09/11 04:13:12;;;;;;;10.20;7.70;;;15.30;99.90;;;;;;5046532;28;20035;-30
2023/09/11 04:15:38;;;;;;;9.07;7.07;;;15.40;99.90;;;;;;5045749;28;20527;-31
2023/09/11 04:18:04;;;;;;;8.18;7.15;;;15.40;99.90;;;;;;5046360;28;20063;-32
2023/09/11 04:20:33;;;;;;;7.57;6.75;;;15.40;99.90;;;;;;5052622;28;20032;-31
2023/09/11 04:23:02;;;;;;;8.77;7.30;;;15.40;99.90;;;;;;5047197;28;20072;-35
2023/09/11 04:25:28;;;;;;;9.55;7.72;;;15.50;99.90;;;;;;5039965;28;20037;-33
2023/09/11 04:27:54;;;;;;;9.20;7.95;;;15.50;99.90;;;;;;5044160;28;20379;-30
2023/09/11 04:30:20;;;;;;;10.55;8.05;;;15.50;99.90;;;;;;5043194;28;20092;-32
2023/09/11 04:32:45;;;;;;;9.60;7.95;;;15.50;99.90;;;;;;5042952;28;20818;-30
2023/09/11 04:35:11;;;;;;;6.80;6.10;;;15.50;99.90;;;;;;5041448;28;20029;-30
2023/09/11 04:37:37;;;;;;;7.68;6.43;;;15.50;99.90;;;;;;5039415;28;20475;-30
2023/09/11 04:40:06;;;;;;;7.78;6.95;;;15.50;99.90;;;;;;5043068;28;20068;-31
2023/09/11 04:42:33;;;;;;;8.40;6.93;;;15.50;99.90;;;;;;5051299;28;20053;-31
2023/09/11 04:44:59;;;;;;;8.23;6.60;;;15.50;99.90;;;;;;5046537;28;20032;-35
2023/09/11 04:47:31;;;;;;;9.43;6.43;;;15.50;99.90;;;;;;5048880;28;20052;-39
2023/09/11 04:49:57;;;;;;;6.80;6.10;;;15.50;99.90;;;;;;5043522;28;20029;-39
2023/09/11 04:52:23;;;;;;;8.05;6.30;;;15.50;99.90;;;;;;5046382;28;20039;-41
2023/09/11 04:54:48;;;;;;;7.60;6.90;;;15.60;99.90;;;;;;5043630;28;20421;-41
2023/09/11 04:57:14;;;;;;;9.45;7.35;;;15.60;99.90;;;;;;5042976;28;20097;-41
2023/09/11 04:59:41;;;;;;;10.38;7.63;;;15.50;99.90;;;;;;5044270;28;20482;-41
2023/09/11 05:02:08;;;;;;;9.57;8.23;;;15.40;99.90;;;;;;5039890;28;20506;-40
2023/09/11 05:04:33;;;;;;;8.95;7.65;;;15.40;99.90;;;;;;5041418;28;20093;-36
2023/09/11 05:06:59;;;;;;;8.38;7.55;;;15.40;99.90;;;;;;5037275;28;20036;-36
2023/09/11 05:09:24;;;;;;;9.07;7.53;;;15.40;99.90;;;;;;5043514;28;20033;-40
2023/09/11 05:11:50;;;;;;;11.40;7.68;;;15.40;99.90;;;;;;5048772;28;20056;-40
2023/09/11 05:14:15;;;;;;;8.77;7.78;;;15.50;99.90;;;;;;5045460;28;20033;-39
2023/09/11 05:16:41;;;;;;;9.00;7.45;;;15.40;99.90;;;;;;5044485;28;20120;-40
2023/09/11 05:19:06;;;;;;;7.70;6.90;;;15.50;99.90;;;;;;5042385;28;20037;-37
2023/09/11 05:21:32;;;;;;;7.25;6.53;;;15.50;99.90;;;;;;5047211;28;21829;-40
2023/09/11 05:23:58;;;;;;;7.85;6.47;;;15.50;99.90;;;;;;5044523;28;20394;-36
2023/09/11 05:26:23;;;;;;;7.28;6.60;;;15.50;99.90;;;;;;5042596;28;20159;-37
2023/09/11 05:28:49;;;;;;;7.05;6.35;;;15.50;99.90;;;;;;5034957;28;20061;-35
2023/09/11 05:31:15;;;;;;;6.45;5.85;;;15.50;99.90;;;;;;5018413;28;20045;-40
2023/09/11 05:33:40;;;;;;;6.47;5.85;;;15.50;99.90;;;;;;5030596;28;20767;-41
2023/09/11 05:36:06;;;;;;;6.40;5.80;;;15.50;99.90;;;;;;5043894;28;20044;-37
2023/09/11 05:38:32;;;;;;;8.50;6.13;;;15.50;99.90;;;;;;5044590;28;20848;-39
2023/09/11 05:40:57;;;;;;;7.63;6.78;;;15.40;99.90;;;;;;5029653;28;22078;-38
2023/09/11 05:43:23;;;;;;;7.90;7.10;;;15.50;99.90;;;;;;5049076;28;20045;-35
2023/09/11 05:45:48;;;;;;;8.73;7.82;;;15.50;99.90;;;;;;5036493;28;20021;-34
2023/09/11 05:48:14;;;;;;;10.20;8.50;;;15.50;99.90;;;;;;5027707;28;20056;-39
2023/09/11 05:50:40;;;;;;;9.98;8.85;;;15.60;99.90;;;;;;5046558;28;20051;-39
2023/09/11 05:53:08;;;;;;;9.52;7.65;;;15.60;99.90;;;;;;5047101;28;20397;-39
2023/09/11 05:55:34;;;;;;;10.30;7.90;;;15.60;99.90;;;;;;5038000;28;20110;-36
2023/09/11 05:58:00;;;;;;;9.35;8.10;;;15.70;99.90;;;;;;5044646;28;20052;-35
2023/09/11 06:00:26;;;;;;;10.93;8.55;;;15.80;99.90;;;;;;5036281;28;20048;-34
2023/09/11 06:02:53;;;;;;;11.43;8.90;;;15.90;99.90;;;;;;5036168;28;21761;-36
2023/09/11 06:05:20;;;;;;;9.43;8.00;;;15.90;99.90;;;;;;5057435;28;20159;-36
2023/09/11 06:07:46;;;;;;;10.40;8.75;;;16.00;99.90;;;;;;5035407;28;20029;-33
2023/09/11 06:10:12;;;;;;;9.95;8.50;;;16.10;99.90;;;;;;5045294;28;20068;-32
2023/09/11 06:12:38;;;;;;;10.25;8.30;;;16.20;99.90;;;;;;5046066;28;20029;-35
2023/09/11 06:15:05;;;;;;;11.88;8.35;;;16.30;99.90;;;;;;5033905;28;20029;-33
2023/09/11 06:17:32;;;;;;;10.02;8.10;;;16.30;99.90;;;;;;5029886;28;20545;-33
2023/09/11 06:19:58;;;;;;;10.70;8.55;;;16.30;99.90;;;;;;5030466;28;20520;-35
2023/09/11 06:22:23;;;;;;;10.63;9.20;;;16.30;99.90;;;;;;5051286;28;20029;-30
2023/09/11 06:24:50;;;;;;;11.45;8.80;;;16.30;99.90;;;;;;5030894;28;20099;-33
2023/09/11 06:27:16;;;;;;;11.73;9.02;;;16.30;99.90;;;;;;5029804;28;20029;-33
2023/09/11 06:29:42;;;;;;;11.60;9.35;;;16.30;99.90;;;;;;5045538;28;20075;-33
2023/09/11 06:32:08;;;;;;;10.00;9.00;;;16.40;99.90;;;;;;5029345;28;20418;-33
2023/09/11 06:34:34;;;;;;;11.07;9.68;;;16.50;99.90;;;;;;5028608;28;20034;-30
2023/09/11 06:37:00;;;;;;;11.85;10.00;;;16.70;99.90;;;;;;5028859;28;20033;-35
2023/09/11 06:39:26;;;;;;;13.07;10.10;;;16.80;99.90;;;;;;5033650;28;20064;-34
2023/09/11 06:41:52;;;;;;;12.95;10.25;;;16.90;99.90;;;;;;5030879;28;20041;-34
2023/09/11 06:44:18;;;;;;;12.50;10.50;;;17.10;99.90;;;;;;5045122;28;20055;-34
2023/09/11 06:46:44;;;;;;;15.75;12.20;;;17.30;99.90;;;;;;5046739;28;20033;-30
2023/09/11 06:49:10;;;;;;;15.52;12.00;;;17.40;99.90;;;;;;5034893;28;20029;-29
2023/09/11 06:51:35;;;;;;;16.65;13.02;;;17.50;99.90;;;;;;5050228;28;20494;-30
2023/09/11 06:54:03;;;;;;;16.75;12.20;;;17.70;99.90;;;;;;5060061;28;20025;-33
2023/09/11 06:56:31;;;;;;;15.60;12.27;;;17.90;99.90;;;;;;5051883;28;20096;-30
2023/09/11 06:58:57;;;;;;;16.55;13.15;;;18.00;99.90;;;;;;5050156;28;20115;-33
2023/09/11 07:01:23;;;;;;;16.23;13.20;;;18.20;99.90;;;;;;5041101;28;20725;-31
2023/09/11 07:03:49;;;;;;;15.48;12.90;;;18.30;99.90;;;;;;5046953;28;20501;-40
2023/09/11 07:06:15;;;;;;;16.13;12.75;;;18.40;99.90;;;;;;5043594;28;20545;-40
2023/09/11 07:08:40;;;;;;;16.38;13.65;;;18.60;99.90;;;;;;5057258;28;20033;-39
2023/09/11 07:11:06;;;;;;;16.90;12.85;;;18.70;99.90;;;;;;5049388;28;20050;-40
2023/09/11 07:13:32;;;;;;;18.67;13.57;;;18.90;99.90;;;;;;5048796;28;20029;-39
2023/09/11 07:15:58;;;;;;;17.70;13.45;;;19.00;99.90;;;;;;5052635;28;20069;-36
2023/09/11 07:18:25;;;;;;;16.15;13.45;;;19.20;99.90;;;;;;5050790;28;20137;-40
2023/09/11 07:20:51;;;;;;;16.25;12.98;;;19.40;99.90;;;;;;5047401;28;20037;-40
2023/09/11 07:23:19;;;;;;;13.18;11.10;;;19.50;99.90;;;;;;5048571;28;20024;-39
2023/09/11 07:25:46;;;;;;;14.00;11.80;;;19.70;99.90;;;;;;5043842;28;20672;-31
2023/09/11 07:28:18;;;;;;;14.07;11.03;;;19.90;99.90;;;;;;5063627;28;20060;-32
2023/09/11 07:30:44;;;;;;;15.40;10.63;;;20.00;99.90;;;;;;5036990;28;20272;-34
2023/09/11 07:33:11;;;;;;;14.13;10.55;;;20.20;99.90;;;;;;5039487;28;20048;-32
2023/09/11 07:35:37;;;;;;;11.98;10.00;;;20.40;99.90;;;;;;5045001;28;20502;-33
2023/09/11 07:38:05;;;;;;;11.15;9.77;;;20.50;99.90;;;;;;5062440;28;20040;-32
2023/09/11 07:40:32;;;;;;;11.75;10.43;;;20.70;99.90;;;;;;5044607;28;20028;-34
2023/09/11 07:42:59;;;;;;;12.07;10.07;;;20.90;99.90;;;;;;5047633;28;20498;-34
2023/09/11 07:45:24;;;;;;;11.82;9.27;;;21.00;99.90;;;;;;5046122;28;20025;-32
2023/09/11 07:47:51;;;;;;;10.68;8.82;;;21.20;99.90;;;;;;5048104;28;20501;-33
2023/09/11 07:50:17;;;;;;;9.85;8.73;;;21.30;99.90;;;;;;5044811;28;20036;-33
2023/09/11 07:52:43;;;;;;;10.13;8.40;;;21.40;99.90;;;;;;5045537;28;20482;-36
2023/09/11 07:55:08;;;;;;;12.02;9.38;;;21.50;99.90;;;;;;5042950;28;20040;-32
2023/09/11 07:57:34;;;;;;;10.95;9.07;;;21.70;99.90;;;;;;5039485;28;20034;-34
2023/09/11 08:00:04;;;;;;;11.27;8.43;;;21.80;99.90;;;;;;5040218;28;20578;-36
2023/09/11 08:02:30;;;;;;;10.48;8.88;;;21.90;99.90;;;;;;5030583;28;20038;-31
2023/09/11 08:04:56;;;;;;;10.38;8.73;;;22.10;99.90;;;;;;5056666;28;20037;-32
2023/09/11 08:07:22;;;;;;;9.50;7.90;;;22.20;99.90;;;;;;5045048;28;20041;-32
2023/09/11 08:09:48;;;;;;;10.35;8.45;;;22.30;99.90;;;;;;5047824;28;20133;-32
2023/09/11 08:12:15;;;;;;;11.43;8.60;;;22.30;99.90;;;;;;5049468;28;20144;-32
2023/09/11 08:14:41;;;;;;;9.10;8.15;;;22.50;99.90;;;;;;5046372;28;20506;-40
2023/09/11 08:17:07;;;;;;;10.85;7.97;;;22.70;99.90;;;;;;5045213;28;20035;-37
2023/09/11 08:19:33;;;;;;;10.20;8.65;;;22.80;99.90;;;;;;5049337;28;20107;-40
2023/09/11 08:21:58;;;;;;;9.00;8.10;;;22.90;99.90;;;;;;5047305;28;20066;-37
2023/09/11 08:24:24;;;;;;;8.55;7.35;;;23.10;99.90;;;;;;5045656;28;20033;-38
2023/09/11 08:26:50;;;;;;;13.40;8.23;;;23.20;99.90;;;;;;5043111;28;20036;-39
2023/09/11 08:29:15;;;;;;;10.52;8.32;;;23.40;99.90;;;;;;5041281;28;20061;-39
2023/09/11 08:31:41;;;;;;;10.90;8.30;;;23.40;99.90;;;;;;5045606;28;20034;-40
2023/09/11 08:34:08;;;;;;;10.25;8.15;;;23.50;99.90;;;;;;5043364;28;20129;-41
2023/09/11 08:36:33;;;;;;;10.10;8.38;;;23.50;99.90;;;;;;5042367;28;20025;-40
2023/09/11 08:38:59;;;;;;;8.82;7.93;;;23.70;99.90;;;;;;5064229;28;20375;-38
2023/09/11 08:41:26;;;;;;;8.77;7.68;;;24.00;99.90;;;;;;5044164;28;20044;-37
2023/09/11 08:43:52;;;;;;;9.68;8.68;;;24.10;99.90;;;;;;5042927;28;20060;-41
2023/09/11 08:46:18;;;;;;;11.02;8.18;;;24.30;99.90;;;;;;5049783;28;20620;-41
2023/09/11 08:48:48;;;;;;;9.38;8.30;;;24.40;99.90;;;;;;5046595;28;20050;-41
2023/09/11 08:51:48;;;;;;;9.07;8.10;;;24.50;99.90;;;;;;5050212;28;20033;-39
2023/09/11 08:54:16;;;;;;;8.68;7.78;;;24.70;99.90;;;;;;5044148;28;20049;-41
2023/09/11 08:56:43;;;;;;;12.02;8.40;;;24.80;99.90;;;;;;5045774;28;20053;-42
2023/09/11 08:59:11;;;;;;;10.20;7.97;;;24.90;99.90;;;;;;5036526;28;20045;-40
2023/09/11 09:01:38;;;;;;;9.95;8.13;;;24.90;99.90;;;;;;5039612;28;20036;-40
2023/09/11 09:04:05;;;;;;;9.10;8.20;;;25.10;99.90;;;;;;5040833;28;20034;-36
2023/09/11 09:06:33;;;;;;;8.82;7.93;;;25.10;99.90;;;;;;5042455;28;20033;-40
2023/09/11 09:08:59;;;;;;;8.85;7.38;;;25.30;99.90;;;;;;5044530;28;20035;-36
2023/09/11 09:11:26;;;;;;;9.88;7.38;;;25.40;99.90;;;;;;5060664;28;20072;-39
2023/09/11 09:13:52;;;;;;;9.80;7.73;;;25.50;99.90;;;;;;5046969;28;20108;-40
2023/09/11 09:16:18;;;;;;;9.98;7.70;;;25.50;99.90;;;;;;5044412;28;20033;-40
2023/09/11 09:18:51;;;;;;;9.20;7.70;;;25.70;99.90;;;;;;5047522;28;20368;-38
2023/09/11 09:21:18;;;;;;;8.57;7.78;;;25.90;99.90;;;;;;5051118;28;20029;-39
2023/09/11 09:23:44;;;;;;;8.55;7.75;;;26.00;99.90;;;;;;5047649;28;20474;-39
2023/09/11 09:26:11;;;;;;;12.20;7.70;;;26.10;99.90;;;;;;5041675;28;20059;-40
2023/09/11 09:28:44;;;;;;;8.50;7.60;;;26.20;99.90;;;;;;5044257;28;20460;-36
2023/09/11 09:31:12;;;;;;;7.65;6.82;;;26.30;99.90;;;;;;5046100;28;20037;-37
2023/09/11 09:33:38;;;;;;;8.50;7.65;;;26.30;99.90;;;;;;5038696;28;20033;-40
2023/09/11 09:36:07;;;;;;;8.23;7.00;;;26.50;99.90;;;;;;5045273;28;20032;-39
2023/09/11 09:38:33;;;;;;;10.68;7.35;;;26.70;99.90;;;;;;5042106;28;20033;-39
2023/09/11 09:41:10;;;;;;;8.00;7.30;;;26.90;99.90;;;;;;5045938;28;20033;-36
2023/09/11 09:43:36;;;;;;;9.68;7.65;;;26.90;99.90;;;;;;5057159;28;20094;-40
2023/09/11 09:46:22;;;;;;;9.52;6.93;;;26.90;99.90;;;;;;5039628;28;20535;-40
2023/09/11 09:48:48;;;;;;;7.45;6.60;;;27.00;99.90;;;;;;5046587;28;20029;-40
2023/09/11 09:51:13;;;;;;;8.93;7.47;;;27.00;99.90;;;;;;5049401;28;20504;-40
2023/09/11 09:53:46;;;;;;;7.85;7.05;;;26.90;99.90;;;;;;5044258;28;20021;-39
2023/09/11 09:56:13;;;;;;;9.05;7.85;;;26.80;99.90;;;;;;5043665;28;20375;-40
2023/09/11 09:58:44;;;;;;;8.02;7.22;;;26.90;99.90;;;;;;5040510;28;20040;-40
2023/09/11 10:01:17;;;;;;;7.80;6.88;;;27.20;99.90;;;;;;5041271;28;20414;-39
2023/09/11 10:03:42;;;;;;;8.35;6.70;;;27.40;99.90;;;;;;5047406;28;20032;-39
2023/09/11 10:06:10;;;;;;;7.93;7.13;;;27.70;99.90;;;;;;5037365;28;20041;-37
2023/09/11 10:08:36;;;;;;;7.25;6.53;;;27.90;99.90;;;;;;5046096;28;20095;-39
2023/09/11 10:11:02;;;;;;;7.25;6.65;;;28.00;99.90;;;;;;5047141;28;20041;-40
2023/09/11 10:13:33;;;;;;;7.60;6.85;;;28.00;99.90;;;;;;5045001;28;20478;-38
2023/09/11 10:16:00;;;;;;;8.10;7.15;;;28.00;99.90;;;;;;5042412;28;20029;-35
2023/09/11 10:18:25;;;;;;;8.27;6.90;;;28.00;99.90;;;;;;5063519;28;20040;-39
2023/09/11 10:20:51;;;;;;;8.32;7.40;;;28.00;99.90;;;;;;5046836;28;20032;-40
2023/09/11 10:23:17;;;;;;;7.07;6.28;;;28.20;99.90;;;;;;5043862;28;20032;-40
2023/09/11 10:25:50;;;;;;;6.75;6.15;;;28.20;99.90;;;;;;5041154;28;20033;-40
2023/09/11 10:28:37;;;;;;;8.00;7.18;;;28.40;99.90;;;;;;5039112;28;20082;-40
2023/09/11 10:31:25;;;;;;;8.30;6.65;;;28.30;99.90;;;;;;5040019;28;20029;-39
2023/09/11 10:33:56;;;;;;;8.02;6.78;;;28.40;99.90;;;;;;5044539;28;20044;-39
2023/09/11 10:36:25;;;;;;;7.07;6.45;;;28.70;99.90;;;;;;5041852;28;20038;-41
2023/09/11 10:38:54;;;;;;;9.18;6.40;;;28.80;99.90;;;;;;5043854;28;20511;-39
2023/09/11 10:41:19;;;;;;;7.35;6.68;;;28.70;99.90;;;;;;5044302;28;20044;-41
2023/09/11 10:43:47;;;;;;;8.20;7.10;;;28.70;99.90;;;;;;5050723;28;20414;-40
2023/09/11 10:46:21;;;;;;;;;;;29.00;99.90;;;;;;5047120;28;20382;-39
2023/09/11 10:48:51;;;;;;;7.18;6.47;;;29.00;99.90;;;;;;5047004;28;20281;-40
2023/09/11 10:51:17;;;;;;;6.93;6.00;;;29.00;99.90;;;;;;5043882;28;20375;-38
2023/09/11 10:53:43;;;;;;;8.10;6.47;;;29.10;99.90;;;;;;5049054;28;20036;-41
2023/09/11 10:56:09;;;;;;;6.95;6.25;;;29.20;99.90;;;;;;5045994;28;20052;-39
2023/09/11 10:58:35;;;;;;;7.72;6.40;;;29.30;99.90;;;;;;5037678;28;20033;-37
2023/09/11 11:01:04;;;;;;;7.22;6.53;;;29.10;99.90;;;;;;5037287;28;20449;-34
2023/09/11 11:03:31;;;;;;;7.35;6.68;;;29.20;99.90;;;;;;5044257;28;20122;-39
2023/09/11 11:06:01;;;;;;;6.93;6.22;;;29.30;99.90;;;;;;5038555;28;20013;-37
2023/09/11 11:08:30;;;;;;;7.93;6.72;;;29.30;99.90;;;;;;5044705;28;20030;-41
2023/09/11 11:10:57;;;;;;;7.00;6.13;;;29.40;99.90;;;;;;5043475;28;20025;-38
2023/09/11 11:13:23;;;;;;;6.93;6.20;;;29.50;99.90;;;;;;5051489;28;20036;-40
2023/09/11 11:16:09;;;;;;;7.63;6.72;;;29.50;99.90;;;;;;5042400;28;20044;-39
2023/09/11 11:18:35;;;;;;;7.68;6.22;;;29.60;99.90;;;;;;5046321;28;20497;-41
2023/09/11 11:21:00;;;;;;;6.88;5.63;;;29.20;99.90;;;;;;5039399;28;20041;-35
2023/09/11 11:23:34;;;;;;;6.05;5.55;;;29.20;99.90;;;;;;5042776;28;20033;-41
2023/09/11 11:26:06;;;;;;;5.65;5.15;;;29.50;99.90;;;;;;5047890;28;20144;-40
2023/09/11 11:28:42;;;;;;;5.93;5.38;;;29.50;99.90;;;;;;5047820;28;20497;-40
2023/09/11 11:31:12;;;;;;;6.13;5.53;;;29.40;99.90;;;;;;5043452;28;20109;-36
2023/09/11 11:33:40;;;;;;;6.32;4.85;;;29.40;99.90;;;;;;5044564;28;20071;-40
2023/09/11 11:36:07;;;;;;;5.43;4.93;;;29.60;99.90;;;;;;5047056;28;21460;-39
2023/09/11 11:38:33;;;;;;;5.22;4.70;;;29.40;99.90;;;;;;5050357;28;20037;-40
2023/09/11 11:41:00;;;;;;;10.73;5.53;;;29.50;99.90;;;;;;5047821;28;20077;-33
2023/09/11 11:43:27;;;;;;;7.43;5.60;;;29.10;99.90;;;;;;5050254;28;20124;-30
2023/09/11 11:45:55;;;;;;;7.20;5.45;;;29.10;99.90;;;;;;5061759;28;20124;-31
2023/09/11 11:48:22;;;;;;;5.63;5.13;;;29.00;99.90;;;;;;5046486;28;20112;-31
2023/09/11 11:50:48;;;;;;;6.10;5.50;;;28.60;99.90;;;;;;5080486;28;20025;-32
2023/09/11 11:53:19;;;;;;;5.63;4.85;;;28.70;99.90;;;;;;5048308;28;20545;-32
2023/09/11 11:55:45;;;;;;;5.60;5.10;;;28.80;99.90;;;;;;5042926;28;20074;-32
2023/09/11 11:58:13;;;;;;;5.18;4.50;;;29.00;99.90;;;;;;5050123;28;20430;-31
2023/09/11 12:00:41;;;;;;;5.82;5.30;;;29.10;99.90;;;;;;5047982;28;20449;-31
2023/09/11 12:03:08;;;;;;;6.28;5.32;;;29.30;99.90;;;;;;5042581;28;20220;-38
2023/09/11 12:05:43;;;;;;;8.13;4.78;;;29.60;99.90;;;;;;5048363;28;20060;-30
2023/09/11 12:08:11;;;;;;;6.40;5.22;;;29.60;99.90;;;;;;5046551;28;20079;-30
2023/09/11 12:10:45;;;;;;;6.90;5.72;;;29.40;99.90;;;;;;5050899;28;20072;-30
2023/09/11 12:13:18;;;;;;;6.30;5.60;;;29.50;99.90;;;;;;5047899;28;20028;-29
2023/09/11 12:15:54;;;;;;;6.88;5.80;;;29.50;99.90;;;;;;5046722;28;20432;-32
2023/09/11 12:18:21;;;;;;;5.90;5.00;;;29.60;99.90;;;;;;5042078;28;20026;-29
2023/09/11 12:20:53;;;;;;;;;;;29.40;99.90;;;;;;5052670;28;20044;-31
2023/09/11 12:23:19;;;;;;;6.45;5.10;;;29.30;99.90;;;;;;5060868;28;19913;-31
2023/09/11 12:25:45;;;;;;;7.75;4.95;;;29.10;99.90;;;;;;5051122;28;20044;-30
2023/09/11 12:28:11;;;;;;;5.35;4.88;;;29.20;99.90;;;;;;5049560;28;20545;-30
2023/09/11 12:30:37;;;;;;;6.63;5.05;;;29.30;99.90;;;;;;5063922;28;20108;-32
2023/09/11 12:33:09;;;;;;;5.70;5.20;;;29.10;99.90;;;;;;5050830;28;20052;-31
2023/09/11 12:35:35;;;;;;;6.25;5.03;;;29.10;99.90;;;;;;5044670;28;20032;-29
2023/09/11 12:38:02;;;;;;;7.15;5.40;;;29.10;99.90;;;;;;5032181;28;20075;-35
2023/09/11 12:40:29;;;;;;;7.47;5.10;;;29.20;99.90;;;;;;5050242;28;20033;-30
2023/09/11 12:42:55;;;;;;;5.70;5.05;;;29.20;99.90;;;;;;5049296;28;20445;-40